UHHH/KHV METAR and TAF weather

Enter ICAO airport designator
Station Type Date Time Source
UHHH METAR 2020/07/07 08:30 UTC NOAA

UHHH 070830Z 27006MPS 9999 SCT028CB 23/17 Q0998 R23L/090060 NOSIG RMK QFE742/0989


Station Type Date Time Source
UHHH Decoded METAR 2020/07/07 08:30 UTC NOAA

Habarovsk, Russia (UHHH) 48-31N 135-10E 76M
Jul 07, 2020 - 04:30 AM EDT / 2020.07.07 0830 UTC
Wind: from the W (270 degrees) at 13 MPH (12 KT):0
Visibility: greater than 7 mile(s):0
Sky conditions: partly cloudy
Weather: Cumulonimbus clouds observed
Temperature: 73 F (23 C)
Dew Point: 62 F (17 C)
Relative Humidity: 68%
Pressure (altimeter): 29.47 in. Hg (0998 hPa)
ob: UHHH 070830Z 27006MPS 9999 SCT028CB 23/17 Q0998 R23L/090060 NOSIG RMK QFE742/0989
cycle: 8

Station Type Date Time Source
UHHH TAF 2020/07/07 09:24 UTC NOAA

TAF TAF UHHH 070755Z 0709/0815 26006MPS 9999 SCT025CB
TEMPO 0709/0718 3100 -TSRA SCT011 BKN015CB
FM071800 05003MPS 3100 -SHRA BR SCT006 BKN020CB
TEMPO 0718/0801 1000 SHRA BR BKN003 BKN015CB
FM080100 03007MPS 5000 -SHRA SCT011 BKN020CB
TEMPO 0801/0815 2000 SHRA BKN004 BKN015CB

Example: see airport list